sensor_id;sensor_type;location;lat;lon;timestamp;pressure;altitude;pressure_sealevel;temperature;humidity
29935;BME280;19905;53.370;-6.314;2022-09-20T00:01:47;102130.31;;;14.89;100.00
29935;BME280;19905;53.370;-6.314;2022-09-20T00:04:16;102132.75;;;14.92;100.00
29935;BME280;19905;53.370;-6.314;2022-09-20T00:06:45;102137.09;;;14.93;100.00
29935;BME280;19905;53.370;-6.314;2022-09-20T00:09:14;102135.19;;;14.95;100.00
29935;BME280;19905;53.370;-6.314;2022-09-20T00:11:43;102124.66;;;14.94;100.00
29935;BME280;19905;53.370;-6.314;2022-09-20T00:14:12;102136.16;;;14.94;100.00
29935;BME280;19905;53.370;-6.314;2022-09-20T00:16:40;102132.75;;;14.92;100.00
29935;BME280;19905;53.370;-6.314;2022-09-20T00:19:16;102131.03;;;14.91;100.00
29935;BME280;19905;53.370;-6.314;2022-09-20T00:21:47;102132.22;;;14.87;100.00
29935;BME280;19905;53.370;-6.314;2022-09-20T00:24:17;102131.81;;;14.81;100.00
29935;BME280;19905;53.370;-6.314;2022-09-20T00:26:46;102121.72;;;14.73;100.00
29935;BME280;19905;53.370;-6.314;2022-09-20T00:29:14;102126.53;;;14.68;100.00
29935;BME280;19905;53.370;-6.314;2022-09-20T00:31:43;102126.00;;;14.63;100.00
29935;BME280;19905;53.370;-6.314;2022-09-20T00:34:11;102127.50;;;14.54;100.00
29935;BME280;19905;53.370;-6.314;2022-09-20T00:37:00;102121.34;;;14.54;100.00
29935;BME280;19905;53.370;-6.314;2022-09-20T00:39:31;102125.56;;;14.56;100.00
29935;BME280;19905;53.370;-6.314;2022-09-20T00:42:01;102123.44;;;14.61;100.00
29935;BME280;19905;53.370;-6.314;2022-09-20T00:44:53;102126.13;;;14.48;100.00
29935;BME280;19905;53.370;-6.314;2022-09-20T00:47:29;102125.28;;;14.48;100.00
29935;BME280;19905;53.370;-6.314;2022-09-20T00:50:06;102122.63;;;14.48;100.00
29935;BME280;19905;53.370;-6.314;2022-09-20T00:52:42;102127.72;;;14.51;100.00
29935;BME280;19905;53.370;-6.314;2022-09-20T00:55:14;102119.97;;;14.48;100.00
29935;BME280;19905;53.370;-6.314;2022-09-20T00:57:44;102118.88;;;14.51;100.00
29935;BME280;19905;53.370;-6.314;2022-09-20T01:00:15;102120.69;;;14.50;100.00
29935;BME280;19905;53.370;-6.314;2022-09-20T01:02:49;102122.63;;;14.48;100.00
29935;BME280;19905;53.370;-6.314;2022-09-20T01:05:20;102128.47;;;14.53;100.00
29935;BME280;19905;53.370;-6.314;2022-09-20T01:07:50;102121.34;;;14.54;100.00
29935;BME280;19905;53.370;-6.314;2022-09-20T01:10:25;102118.03;;;14.50;100.00
29935;BME280;19905;53.370;-6.314;2022-09-20T01:12:54;102127.50;;;14.54;100.00
29935;BME280;19905;53.370;-6.314;2022-09-20T01:15:30;102125.81;;;14.53;100.00
29935;BME280;19905;53.370;-6.314;2022-09-20T01:18:01;102124.19;;;14.51;100.00
29935;BME280;19905;53.370;-6.314;2022-09-20T01:20:32;102123.22;;;14.52;100.00
29935;BME280;19905;53.370;-6.314;2022-09-20T01:23:33;102129.53;;;14.51;100.00
29935;BME280;19905;53.370;-6.314;2022-09-20T01:29:09;102131.34;;;14.50;100.00
29935;BME280;19905;53.370;-6.314;2022-09-20T01:31:45;102130.47;;;14.49;100.00
29935;BME280;19905;53.370;-6.314;2022-09-20T01:34:20;102129.53;;;14.51;100.00
29935;BME280;19905;53.370;-6.314;2022-09-20T01:36:56;102126.84;;;14.51;100.00
29935;BME280;19905;53.370;-6.314;2022-09-20T01:39:35;102131.34;;;14.50;100.00
29935;BME280;19905;53.370;-6.314;2022-09-20T01:42:10;102131.50;;;14.47;100.00
29935;BME280;19905;53.370;-6.314;2022-09-20T01:44:53;102134.09;;;14.48;100.00
29935;BME280;19905;53.370;-6.314;2022-09-20T01:47:31;102127.16;;;14.46;100.00
29935;BME280;19905;53.370;-6.314;2022-09-20T01:50:12;102125.56;;;14.43;100.00
29935;BME280;19905;53.370;-6.314;2022-09-20T01:59:07;102122.81;;;14.45;100.00
29935;BME280;19905;53.370;-6.314;2022-09-20T02:02:10;102128.13;;;14.45;100.00
29935;BME280;19905;53.370;-6.314;2022-09-20T02:05:11;102121.94;;;14.44;100.00
29935;BME280;19905;53.370;-6.314;2022-09-20T02:11:13;102130.78;;;14.45;100.00
29935;BME280;19905;53.370;-6.314;2022-09-20T02:13:55;102129.94;;;14.44;100.00
29935;BME280;19905;53.370;-6.314;2022-09-20T02:19:29;102129.81;;;14.46;100.00
29935;BME280;19905;53.370;-6.314;2022-09-20T02:22:16;102123.66;;;14.45;100.00
29935;BME280;19905;53.370;-6.314;2022-09-20T02:25:00;102129.53;;;14.51;100.00
29935;BME280;19905;53.370;-6.314;2022-09-20T02:27:39;102126.75;;;14.39;100.00
29935;BME280;19905;53.370;-6.314;2022-09-20T02:30:19;102120.66;;;14.37;100.00
29935;BME280;19905;53.370;-6.314;2022-09-20T02:33:04;102128.56;;;14.39;100.00
29935;BME280;19905;53.370;-6.314;2022-09-20T02:35:49;102121.50;;;14.38;100.00
29935;BME280;19905;53.370;-6.314;2022-09-20T02:38:38;102127.59;;;14.40;100.00
29935;BME280;19905;53.370;-6.314;2022-09-20T02:41:25;102123.25;;;14.39;100.00
29935;BME280;19905;53.370;-6.314;2022-09-20T02:44:07;102119.69;;;14.38;100.00
29935;BME280;19905;53.370;-6.314;2022-09-20T02:46:44;102119.94;;;14.35;100.00
29935;BME280;19905;53.370;-6.314;2022-09-20T02:49:30;102114.81;;;14.32;100.00
29935;BME280;19905;53.370;-6.314;2022-09-20T02:52:15;102114.09;;;14.30;100.00
29935;BME280;19905;53.370;-6.314;2022-09-20T02:54:49;102116.09;;;14.27;100.00
29935;BME280;19905;53.370;-6.314;2022-09-20T02:57:27;102108.03;;;14.28;100.00
29935;BME280;19905;53.370;-6.314;2022-09-20T03:00:03;102109.09;;;14.26;100.00
29935;BME280;19905;53.370;-6.314;2022-09-20T03:02:40;102107.16;;;14.15;100.00
29935;BME280;19905;53.370;-6.314;2022-09-20T03:05:19;102107.81;;;14.18;100.00
29935;BME280;19905;53.370;-6.314;2022-09-20T03:08:01;102108.44;;;14.09;100.00
29935;BME280;19905;53.370;-6.314;2022-09-20T03:10:38;102111.22;;;14.08;100.00
29935;BME280;19905;53.370;-6.314;2022-09-20T03:13:16;102112.91;;;14.09;100.00
29935;BME280;19905;53.370;-6.314;2022-09-20T03:15:56;102113.97;;;14.06;100.00
29935;BME280;19905;53.370;-6.314;2022-09-20T03:18:37;102109.84;;;14.02;100.00
29935;BME280;19905;53.370;-6.314;2022-09-20T03:21:19;102109.94;;;14.01;100.00
29935;BME280;19905;53.370;-6.314;2022-09-20T03:24:04;102106.44;;;14.00;100.00
29935;BME280;19905;53.370;-6.314;2022-09-20T03:26:46;102106.75;;;13.95;100.00
29935;BME280;19905;53.370;-6.314;2022-09-20T03:29:30;102096.22;;;13.94;100.00
29935;BME280;19905;53.370;-6.314;2022-09-20T03:32:14;102100.56;;;13.95;100.00
29935;BME280;19905;53.370;-6.314;2022-09-20T03:34:58;102095.38;;;13.93;100.00
29935;BME280;19905;53.370;-6.314;2022-09-20T03:37:44;102094.63;;;13.91;100.00
29935;BME280;19905;53.370;-6.314;2022-09-20T03:40:30;102094.84;;;13.88;100.00
29935;BME280;19905;53.370;-6.314;2022-09-20T03:43:17;102092.06;;;13.90;100.00
29935;BME280;19905;53.370;-6.314;2022-09-20T03:46:00;102098.22;;;13.90;100.00
29935;BME280;19905;53.370;-6.314;2022-09-20T03:51:48;102089.09;;;13.82;100.00
29935;BME280;19905;53.370;-6.314;2022-09-20T03:58:07;102089.41;;;13.77;100.00
29935;BME280;19905;53.370;-6.314;2022-09-20T04:00:51;102086.00;;;13.75;100.00
29935;BME280;19905;53.370;-6.314;2022-09-20T04:06:40;102085.16;;;13.75;100.00
29935;BME280;19905;53.370;-6.314;2022-09-20T04:09:36;102087.16;;;13.71;100.00
29935;BME280;19905;53.370;-6.314;2022-09-20T04:12:21;102089.16;;;13.67;100.00
29935;BME280;19905;53.370;-6.314;2022-09-20T04:15:04;102092.78;;;13.66;100.00
29935;BME280;19905;53.370;-6.314;2022-09-20T04:17:47;102087.66;;;13.63;100.00
29935;BME280;19905;53.370;-6.314;2022-09-20T04:20:24;102090.63;;;13.59;100.00
29935;BME280;19905;53.370;-6.314;2022-09-20T04:23:01;102087.25;;;13.57;100.00
29935;BME280;19905;53.370;-6.314;2022-09-20T04:25:36;102084.78;;;13.54;100.00
29935;BME280;19905;53.370;-6.314;2022-09-20T04:28:12;102083.19;;;13.51;100.00
29935;BME280;19905;53.370;-6.314;2022-09-20T04:30:45;102084.44;;;13.45;100.00
29935;BME280;19905;53.370;-6.314;2022-09-20T04:33:19;102081.72;;;13.47;100.00
29935;BME280;19905;53.370;-6.314;2022-09-20T04:35:58;102079.34;;;13.42;100.00
29935;BME280;19905;53.370;-6.314;2022-09-20T04:38:57;102076.13;;;13.37;100.00
29935;BME280;19905;53.370;-6.314;2022-09-20T04:41:56;102081.44;;;13.37;100.00
29935;BME280;19905;53.370;-6.314;2022-09-20T04:44:45;102079.97;;;13.33;100.00
29935;BME280;19905;53.370;-6.314;2022-09-20T04:51:04;102079.41;;;13.28;100.00
29935;BME280;19905;53.370;-6.314;2022-09-20T04:54:05;102074.31;;;13.25;100.00
29935;BME280;19905;53.370;-6.314;2022-09-20T04:56:55;102077.03;;;13.23;100.00
29935;BME280;19905;53.370;-6.314;2022-09-20T04:59:43;102088.69;;;13.21;100.00
29935;BME280;19905;53.370;-6.314;2022-09-20T05:02:53;102085.69;;;13.13;100.00
29935;BME280;19905;53.370;-6.314;2022-09-20T05:12:08;102095.03;;;12.91;100.00
29935;BME280;19905;53.370;-6.314;2022-09-20T05:15:22;102096.28;;;12.86;100.00
29935;BME280;19905;53.370;-6.314;2022-09-20T05:18:17;102091.06;;;12.84;100.00
29935;BME280;19905;53.370;-6.314;2022-09-20T05:21:09;102096.47;;;12.83;100.00
29935;BME280;19905;53.370;-6.314;2022-09-20T05:23:57;102094.75;;;12.82;100.00
29935;BME280;19905;53.370;-6.314;2022-09-20T05:26:37;102097.41;;;12.82;100.00
29935;BME280;19905;53.370;-6.314;2022-09-20T05:29:13;102094.97;;;12.79;100.00
29935;BME280;19905;53.370;-6.314;2022-09-20T05:31:50;102101.31;;;12.76;100.00
29935;BME280;19905;53.370;-6.314;2022-09-20T05:34:26;102094.03;;;12.80;100.00
29935;BME280;19905;53.370;-6.314;2022-09-20T05:37:05;102100.28;;;12.79;100.00
29935;BME280;19905;53.370;-6.314;2022-09-20T05:39:43;102100.47;;;12.76;100.00
29935;BME280;19905;53.370;-6.314;2022-09-20T05:42:24;102104.16;;;12.73;100.00
29935;BME280;19905;53.370;-6.314;2022-09-20T05:45:12;102105.50;;;12.66;100.00
29935;BME280;19905;53.370;-6.314;2022-09-20T05:47:52;102105.56;;;12.64;100.00
29935;BME280;19905;53.370;-6.314;2022-09-20T05:50:36;102109.28;;;12.62;100.00
29935;BME280;19905;53.370;-6.314;2022-09-20T05:56:06;102106.94;;;12.57;100.00
29935;BME280;19905;53.370;-6.314;2022-09-20T05:58:53;102116.69;;;12.57;100.00
29935;BME280;19905;53.370;-6.314;2022-09-20T06:01:29;102115.16;;;12.53;100.00
29935;BME280;19905;53.370;-6.314;2022-09-20T06:04:18;102111.84;;;12.49;100.00
29935;BME280;19905;53.370;-6.314;2022-09-20T06:06:56;102115.44;;;12.48;100.00
29935;BME280;19905;53.370;-6.314;2022-09-20T06:09:59;102116.19;;;12.50;100.00
29935;BME280;19905;53.370;-6.314;2022-09-20T06:12:37;102115.44;;;12.48;100.00
29935;BME280;19905;53.370;-6.314;2022-09-20T06:15:16;102114.66;;;12.46;100.00
29935;BME280;19905;53.370;-6.314;2022-09-20T06:17:55;102116.41;;;12.47;100.00
29935;BME280;19905;53.370;-6.314;2022-09-20T06:20:29;102117.31;;;12.46;100.00
29935;BME280;19905;53.370;-6.314;2022-09-20T06:23:03;102119.13;;;12.45;100.00
29935;BME280;19905;53.370;-6.314;2022-09-20T06:25:38;102110.72;;;12.39;100.00
29935;BME280;19905;53.370;-6.314;2022-09-20T06:28:15;102116.19;;;12.36;100.00
29935;BME280;19905;53.370;-6.314;2022-09-20T06:30:46;102119.69;;;12.36;100.00
29935;BME280;19905;53.370;-6.314;2022-09-20T06:33:21;102115.16;;;12.38;100.00
29935;BME280;19905;53.370;-6.314;2022-09-20T06:35:56;102118.66;;;12.39;100.00
29935;BME280;19905;53.370;-6.314;2022-09-20T06:38:54;102122.91;;;12.41;100.00
29935;BME280;19905;53.370;-6.314;2022-09-20T06:41:46;102121.69;;;12.47;100.00
29935;BME280;19905;53.370;-6.314;2022-09-20T06:44:18;102118.84;;;12.50;100.00
29935;BME280;19905;53.370;-6.314;2022-09-20T06:46:46;102118.19;;;12.46;100.00
29935;BME280;19905;53.370;-6.314;2022-09-20T06:49:19;102127.34;;;12.41;100.00
29935;BME280;19905;53.370;-6.314;2022-09-20T06:51:49;102121.97;;;12.42;100.00
29935;BME280;19905;53.370;-6.314;2022-09-20T06:54:41;102127.19;;;12.44;100.00
29935;BME280;19905;53.370;-6.314;2022-09-20T06:57:20;102131.34;;;12.48;100.00
29935;BME280;19905;53.370;-6.314;2022-09-20T06:59:51;102134.38;;;12.56;100.00
29935;BME280;19905;53.370;-6.314;2022-09-20T07:02:32;102128.03;;;12.59;100.00
29935;BME280;19905;53.370;-6.314;2022-09-20T07:05:17;102131.16;;;12.65;100.00
29935;BME280;19905;53.370;-6.314;2022-09-20T07:08:01;102130.94;;;12.68;100.00
29935;BME280;19905;53.370;-6.314;2022-09-20T07:10:42;102128.78;;;12.75;100.00
29935;BME280;19905;53.370;-6.314;2022-09-20T07:32:32;102133.38;;;13.81;100.00
29935;BME280;19905;53.370;-6.314;2022-09-20T07:35:01;102130.97;;;13.91;100.00
29935;BME280;19905;53.370;-6.314;2022-09-20T07:37:30;102123.97;;;14.03;100.00
29935;BME280;19905;53.370;-6.314;2022-09-20T07:40:03;102131.72;;;13.93;100.00
29935;BME280;19905;53.370;-6.314;2022-09-20T07:42:34;102128.75;;;13.97;100.00
29935;BME280;19905;53.370;-6.314;2022-09-20T07:45:03;102125.66;;;14.04;100.00
29935;BME280;19905;53.370;-6.314;2022-09-20T07:47:35;102123.97;;;14.15;100.00
29935;BME280;19905;53.370;-6.314;2022-09-20T07:50:08;102118.44;;;14.31;100.00
29935;BME280;19905;53.370;-6.314;2022-09-20T07:52:37;102127.91;;;14.35;100.00
29935;BME280;19905;53.370;-6.314;2022-09-20T07:55:07;102124.09;;;14.39;100.00
29935;BME280;19905;53.370;-6.314;2022-09-20T07:57:36;102119.19;;;14.59;100.00
29935;BME280;19905;53.370;-6.314;2022-09-20T08:00:07;102123.41;;;14.74;100.00
29935;BME280;19905;53.370;-6.314;2022-09-20T08:02:39;102115.75;;;14.82;100.00
29935;BME280;19905;53.370;-6.314;2022-09-20T08:05:07;102117.75;;;14.91;100.00
29935;BME280;19905;53.370;-6.314;2022-09-20T08:07:37;102119.59;;;15.02;100.00
29935;BME280;19905;53.370;-6.314;2022-09-20T08:10:08;102115.94;;;15.16;100.00
29935;BME280;19905;53.370;-6.314;2022-09-20T08:12:38;102114.19;;;15.28;100.00
29935;BME280;19905;53.370;-6.314;2022-09-20T08:23:14;102123.06;;;15.39;100.00
29935;BME280;19905;53.370;-6.314;2022-09-20T08:25:49;102113.56;;;15.48;100.00
29935;BME280;19905;53.370;-6.314;2022-09-20T08:28:18;102111.38;;;15.66;100.00
29935;BME280;19905;53.370;-6.314;2022-09-20T08:30:46;102110.06;;;15.71;100.00
29935;BME280;19905;53.370;-6.314;2022-09-20T08:33:15;102113.59;;;15.83;100.00
29935;BME280;19905;53.370;-6.314;2022-09-20T08:35:47;102107.34;;;15.95;100.00
29935;BME280;19905;53.370;-6.314;2022-09-20T08:38:17;102107.44;;;15.94;100.00
29935;BME280;19905;53.370;-6.314;2022-09-20T08:41:10;102113.66;;;15.94;100.00
29935;BME280;19905;53.370;-6.314;2022-09-20T08:43:45;102115.00;;;16.00;100.00
29935;BME280;19905;53.370;-6.314;2022-09-20T08:46:17;102111.34;;;16.01;100.00
29935;BME280;19905;53.370;-6.314;2022-09-20T08:48:54;102111.22;;;16.02;100.00
29935;BME280;19905;53.370;-6.314;2022-09-20T09:23:00;102118.16;;;16.16;100.00
29935;BME280;19905;53.370;-6.314;2022-09-20T09:28:12;102128.94;;;16.15;100.00
29935;BME280;19905;53.370;-6.314;2022-09-20T09:30:43;102120.94;;;16.26;100.00
29935;BME280;19905;53.370;-6.314;2022-09-20T09:33:21;102126.44;;;16.36;100.00
29935;BME280;19905;53.370;-6.314;2022-09-20T09:35:56;102129.72;;;16.50;100.00
29935;BME280;19905;53.370;-6.314;2022-09-20T09:38:29;102125.69;;;16.56;100.00
29935;BME280;19905;53.370;-6.314;2022-09-20T09:41:00;102115.50;;;16.61;100.00
29935;BME280;19905;53.370;-6.314;2022-09-20T09:43:30;102123.28;;;16.75;100.00
29935;BME280;19905;53.370;-6.314;2022-09-20T09:46:22;102121.19;;;16.90;100.00
29935;BME280;19905;53.370;-6.314;2022-09-20T09:49:05;102118.75;;;16.98;100.00
29935;BME280;19905;53.370;-6.314;2022-09-20T09:51:38;102110.50;;;17.01;100.00
29935;BME280;19905;53.370;-6.314;2022-09-20T09:54:15;102106.41;;;16.97;100.00
29935;BME280;19905;53.370;-6.314;2022-09-20T09:56:55;102102.28;;;17.05;100.00
29935;BME280;19905;53.370;-6.314;2022-09-20T09:59:45;102106.81;;;17.25;100.00
29935;BME280;19905;53.370;-6.314;2022-09-20T10:02:44;102101.72;;;17.22;100.00
29935;BME280;19905;53.370;-6.314;2022-09-20T10:05:20;102092.16;;;17.40;100.00
29935;BME280;19905;53.370;-6.314;2022-09-20T10:08:01;102094.88;;;17.61;100.00
29935;BME280;19905;53.370;-6.314;2022-09-20T10:10:40;102094.44;;;17.77;100.00
29935;BME280;19905;53.370;-6.314;2022-09-20T10:13:21;102098.66;;;17.59;100.00
29935;BME280;19905;53.370;-6.314;2022-09-20T10:15:58;102102.47;;;17.77;100.00
29935;BME280;19905;53.370;-6.314;2022-09-20T10:18:40;102108.69;;;17.66;100.00
29935;BME280;19905;53.370;-6.314;2022-09-20T10:21:25;102106.94;;;17.56;100.00
29935;BME280;19905;53.370;-6.314;2022-09-20T10:24:14;102102.16;;;17.59;100.00
29935;BME280;19905;53.370;-6.314;2022-09-20T10:27:04;102108.28;;;17.50;100.00
29935;BME280;19905;53.370;-6.314;2022-09-20T10:29:41;102108.19;;;17.40;100.00
29935;BME280;19905;53.370;-6.314;2022-09-20T10:32:24;102109.94;;;17.30;100.00
29935;BME280;19905;53.370;-6.314;2022-09-20T10:35:24;102105.06;;;17.35;100.00
29935;BME280;19905;53.370;-6.314;2022-09-20T10:38:13;102109.72;;;17.54;100.00
29935;BME280;19905;53.370;-6.314;2022-09-20T10:40:58;102106.94;;;17.56;100.00
29935;BME280;19905;53.370;-6.314;2022-09-20T10:43:59;102103.34;;;17.66;100.00
29935;BME280;19905;53.370;-6.314;2022-09-20T10:46:44;102104.41;;;17.96;100.00
29935;BME280;19905;53.370;-6.314;2022-09-20T10:49:23;102097.19;;;18.08;100.00
29935;BME280;19905;53.370;-6.314;2022-09-20T10:52:13;102095.69;;;18.55;100.00
29935;BME280;19905;53.370;-6.314;2022-09-20T11:05:21;102087.25;;;18.60;100.00
29935;BME280;19905;53.370;-6.314;2022-09-20T11:08:01;102091.50;;;18.52;100.00
29935;BME280;19905;53.370;-6.314;2022-09-20T11:10:34;102088.91;;;18.72;100.00
29935;BME280;19905;53.370;-6.314;2022-09-20T11:13:07;102074.13;;;18.87;100.00
29935;BME280;19905;53.370;-6.314;2022-09-20T11:15:42;102077.97;;;19.14;100.00
29935;BME280;19905;53.370;-6.314;2022-09-20T11:44:10;102070.00;;;18.73;100.00
29935;BME280;19905;53.370;-6.314;2022-09-20T11:46:43;102069.69;;;18.67;100.00
29935;BME280;19905;53.370;-6.314;2022-09-20T11:49:17;102070.38;;;19.19;100.00
29935;BME280;19905;53.370;-6.314;2022-09-20T11:55:09;102060.53;;;19.29;100.00
29935;BME280;19905;53.370;-6.314;2022-09-20T11:57:42;102056.69;;;19.41;100.00
29935;BME280;19905;53.370;-6.314;2022-09-20T12:00:13;102052.84;;;19.83;100.00
29935;BME280;19905;53.370;-6.314;2022-09-20T12:02:46;102050.75;;;19.76;100.00
29935;BME280;19905;53.370;-6.314;2022-09-20T12:05:29;102057.41;;;19.63;100.00
29935;BME280;19905;53.370;-6.314;2022-09-20T12:08:02;102058.41;;;19.71;100.00
29935;BME280;19905;53.370;-6.314;2022-09-20T12:10:33;102051.34;;;19.61;100.00
29935;BME280;19905;53.370;-6.314;2022-09-20T12:13:05;102056.13;;;19.57;100.00
29935;BME280;19905;53.370;-6.314;2022-09-20T12:15:37;102049.34;;;19.53;100.00
29935;BME280;19905;53.370;-6.314;2022-09-20T12:21:08;102047.34;;;19.74;100.00
29935;BME280;19905;53.370;-6.314;2022-09-20T12:24:18;102047.69;;;20.09;100.00
29935;BME280;19905;53.370;-6.314;2022-09-20T12:26:58;102040.34;;;20.11;100.00
29935;BME280;19905;53.370;-6.314;2022-09-20T12:29:54;102045.69;;;19.44;100.00
29935;BME280;19905;53.370;-6.314;2022-09-20T12:32:44;102041.75;;;19.10;100.00
29935;BME280;19905;53.370;-6.314;2022-09-20T12:38:32;102035.50;;;19.77;100.00
29935;BME280;19905;53.370;-6.314;2022-09-20T12:41:11;102035.16;;;19.99;100.00
29935;BME280;19905;53.370;-6.314;2022-09-20T12:43:59;102029.72;;;20.19;100.00
29935;BME280;19905;53.370;-6.314;2022-09-20T12:46:39;102035.75;;;19.84;100.00
29935;BME280;19905;53.370;-6.314;2022-09-20T12:49:33;102037.25;;;19.29;100.00
29935;BME280;19905;53.370;-6.314;2022-09-20T12:52:25;102032.16;;;19.36;100.00
29935;BME280;19905;53.370;-6.314;2022-09-20T12:55:27;102033.84;;;19.27;100.00
29935;BME280;19905;53.370;-6.314;2022-09-20T12:57:59;102028.50;;;19.18;100.00
29935;BME280;19905;53.370;-6.314;2022-09-20T13:00:36;102027.22;;;19.22;100.00
29935;BME280;19905;53.370;-6.314;2022-09-20T13:03:20;102019.34;;;19.30;100.00
29935;BME280;19905;53.370;-6.314;2022-09-20T13:06:21;102014.06;;;19.77;100.00
29935;BME280;19905;53.370;-6.314;2022-09-20T13:08:55;102008.31;;;19.62;100.00
29935;BME280;19905;53.370;-6.314;2022-09-20T13:11:36;102008.44;;;19.51;100.00
29935;BME280;19905;53.370;-6.314;2022-09-20T13:14:10;102011.13;;;19.51;100.00
29935;BME280;19905;53.370;-6.314;2022-09-20T13:16:49;102019.31;;;19.49;100.00
29935;BME280;19905;53.370;-6.314;2022-09-20T13:19:20;102012.84;;;19.62;100.00
29935;BME280;19905;53.370;-6.314;2022-09-20T13:21:56;102016.50;;;19.70;100.00
29935;BME280;19905;53.370;-6.314;2022-09-20T13:24:33;102008.44;;;19.70;100.00
29935;BME280;19905;53.370;-6.314;2022-09-20T13:27:07;102008.81;;;19.85;100.00
29935;BME280;19905;53.370;-6.314;2022-09-20T13:29:45;102013.47;;;19.83;100.00
29935;BME280;19905;53.370;-6.314;2022-09-20T13:32:17;102011.00;;;20.09;100.00
29935;BME280;19905;53.370;-6.314;2022-09-20T13:35:04;102010.66;;;20.22;100.00
29935;BME280;19905;53.370;-6.314;2022-09-20T13:37:36;102011.94;;;20.18;100.00
29935;BME280;19905;53.370;-6.314;2022-09-20T13:40:16;102015.63;;;20.17;100.00
29935;BME280;19905;53.370;-6.314;2022-09-20T13:42:45;102003.72;;;19.92;100.00
29935;BME280;19905;53.370;-6.314;2022-09-20T13:45:16;102010.25;;;19.70;100.00
29935;BME280;19905;53.370;-6.314;2022-09-20T13:47:48;102006.88;;;19.77;100.00
29935;BME280;19905;53.370;-6.314;2022-09-20T13:50:21;101999.09;;;19.84;100.00
29935;BME280;19905;53.370;-6.314;2022-09-20T13:52:54;102000.53;;;19.69;100.00
29935;BME280;19905;53.370;-6.314;2022-09-20T13:55:27;102008.44;;;19.51;100.00
29935;BME280;19905;53.370;-6.314;2022-09-20T13:58:00;102004.06;;;19.60;100.00
29935;BME280;19905;53.370;-6.314;2022-09-20T14:00:30;102010.28;;;19.50;100.00
29935;BME280;19905;53.370;-6.314;2022-09-20T14:02:59;102001.44;;;19.30;100.00
29935;BME280;19905;53.370;-6.314;2022-09-20T14:05:28;102003.53;;;19.27;100.00
29935;BME280;19905;53.370;-6.314;2022-09-20T14:08:00;102002.13;;;19.13;100.00
29935;BME280;19905;53.370;-6.314;2022-09-20T14:10:32;102002.84;;;19.05;100.00
29935;BME280;19905;53.370;-6.314;2022-09-20T14:13:05;101990.75;;;19.01;100.00
29935;BME280;19905;53.370;-6.314;2022-09-20T14:15:38;102007.78;;;19.00;100.00
29935;BME280;19905;53.370;-6.314;2022-09-20T14:18:12;102004.81;;;18.94;100.00
29935;BME280;19905;53.370;-6.314;2022-09-20T14:20:42;102001.00;;;18.96;100.00
29935;BME280;19905;53.370;-6.314;2022-09-20T14:23:20;102002.97;;;19.23;100.00
29935;BME280;19905;53.370;-6.314;2022-09-20T14:26:19;102012.41;;;19.57;100.00
29935;BME280;19905;53.370;-6.314;2022-09-20T14:28:49;101999.44;;;19.33;100.00
29935;BME280;19905;53.370;-6.314;2022-09-20T14:31:20;102006.50;;;19.34;100.00
29935;BME280;19905;53.370;-6.314;2022-09-20T14:33:52;102001.56;;;19.19;100.00
29935;BME280;19905;53.370;-6.314;2022-09-20T14:36:24;102002.00;;;19.24;100.00
29935;BME280;19905;53.370;-6.314;2022-09-20T14:38:56;101993.41;;;19.30;100.00
29935;BME280;19905;53.370;-6.314;2022-09-20T14:41:27;102001.69;;;19.27;100.00
29935;BME280;19905;53.370;-6.314;2022-09-20T14:44:00;101994.91;;;19.52;100.00
29935;BME280;19905;53.370;-6.314;2022-09-20T14:46:32;101987.31;;;19.48;100.00
29935;BME280;19905;53.370;-6.314;2022-09-20T14:49:28;101983.66;;;19.96;100.00
29935;BME280;19905;53.370;-6.314;2022-09-20T14:52:35;101980.31;;;19.84;100.00
29935;BME280;19905;53.370;-6.314;2022-09-20T14:55:19;101981.53;;;19.43;100.00
29935;BME280;19905;53.370;-6.314;2022-09-20T14:57:59;101979.19;;;19.11;100.00
29935;BME280;19905;53.370;-6.314;2022-09-20T15:00:29;101985.91;;;19.44;100.00
29935;BME280;19905;53.370;-6.314;2022-09-20T15:03:12;101982.28;;;19.16;100.00
29935;BME280;19905;53.370;-6.314;2022-09-20T15:05:46;101984.09;;;19.25;100.00
29935;BME280;19905;53.370;-6.314;2022-09-20T15:08:16;101979.97;;;19.40;100.00
29935;BME280;19905;53.370;-6.314;2022-09-20T15:10:47;101985.78;;;19.16;100.00
29935;BME280;19905;53.370;-6.314;2022-09-20T15:13:17;101976.06;;;19.25;100.00
29935;BME280;19905;53.370;-6.314;2022-09-20T15:15:49;101967.72;;;19.28;100.00
29935;BME280;19905;53.370;-6.314;2022-09-20T15:18:20;101968.66;;;19.56;100.00
29935;BME280;19905;53.370;-6.314;2022-09-20T15:20:52;101952.44;;;22.42;100.00
29935;BME280;19905;53.370;-6.314;2022-09-20T15:23:21;101946.81;;;23.10;100.00
29935;BME280;19905;53.370;-6.314;2022-09-20T15:25:53;101951.63;;;21.73;100.00
29935;BME280;19905;53.370;-6.314;2022-09-20T15:28:22;101951.94;;;20.82;100.00
29935;BME280;19905;53.370;-6.314;2022-09-20T15:30:52;101952.91;;;19.90;100.00
29935;BME280;19905;53.370;-6.314;2022-09-20T15:33:21;101953.56;;;19.65;100.00
29935;BME280;19905;53.370;-6.314;2022-09-20T15:35:50;101951.66;;;19.85;100.00
29935;BME280;19905;53.370;-6.314;2022-09-20T15:38:19;101952.63;;;19.93;100.00
29935;BME280;19905;53.370;-6.314;2022-09-20T15:40:48;101951.03;;;20.28;100.00
29935;BME280;19905;53.370;-6.314;2022-09-20T15:43:21;101943.88;;;22.54;100.00
29935;BME280;19905;53.370;-6.314;2022-09-20T15:45:54;101950.34;;;22.19;100.00
29935;BME280;19905;53.370;-6.314;2022-09-20T15:48:26;101945.19;;;20.78;100.00
29935;BME280;19905;53.370;-6.314;2022-09-20T15:51:00;101932.59;;;20.96;100.00
29935;BME280;19905;53.370;-6.314;2022-09-20T15:53:30;101933.31;;;20.98;100.00